Terminal Aerodrome Forecast
Issued by NWS Shreveport, LA

Home | Current Version | Previous Version | Text Only | Print | Product List | Glossary On
Versions: 1 2 3 4 5 6 7 8 9 10 11 12
000
FTUS44 KSHV 032340
TAFTYR
TAF
KTYR 032340Z 0400/0424 18009KT P6SM FEW060
     FM040100 16006KT P6SM SKC
     FM041300 17007KT P6SM SCT250
     FM041600 17011KT P6SM SCT050 BKN250
     FM041800 17011G17KT P6SM SCT050 BKN250=

USA.gov is the U.S. government's official web portal to all federal, state and local government web resources and services.